Yr Wyddgrug, United Kingdom
Current Conditions -  °F | °C
As of 10:20 AM on Thursday 29 Jan 2015 (Local Time) from EGNR Reporting Station
Snow Showers Snow Showers  
Wind Chill: 29°   Ceiling: 4500
Heat Index: 37°   Visibility: 6mi
Dew Point: 34°   Wind: 15mph
Humidity: 87%   Direction: 260°W
Pressure: 28.97"   Gusts: NA
Location:  53.17°N, 3.14°W
Report Text: EGNR 291020Z 26013KT 240V300 9999 6000S -SHRASN FEW015CB SCT035 BKN045 03/01 Q0981
Loading
Personal Weather Stations






























Interactive Weather Map New forecast layout! Learn more

10-Day Weather Forecast

Advertisements
Track Severe Weather on mobile